createdAt,value
2023-02-13T00:01:26.514Z,86.74
2023-02-13T00:03:54.669Z,86.37
2023-02-13T00:06:23.569Z,86.11
2023-02-13T00:08:51.881Z,85.96
2023-02-13T00:11:20.715Z,86.09
2023-02-13T00:13:48.949Z,85.95
2023-02-13T00:16:17.179Z,85.75
2023-02-13T00:18:45.532Z,85.51
2023-02-13T00:21:14.282Z,85.05
2023-02-13T00:23:42.415Z,84.63
2023-02-13T00:26:14.176Z,84.48
2023-02-13T00:28:45.525Z,84.34
2023-02-13T00:31:20.991Z,84.15
2023-02-13T00:33:50.740Z,84.17
2023-02-13T00:36:22.207Z,84.06
2023-02-13T00:38:50.643Z,84.08
2023-02-13T00:41:18.920Z,84.38
2023-02-13T00:43:47.839Z,84.84
2023-02-13T00:46:17.464Z,84.82
2023-02-13T00:48:46.316Z,84.87
2023-02-13T00:51:14.763Z,84.94
2023-02-13T00:53:43.042Z,85.13
2023-02-13T00:56:11.462Z,85.19
2023-02-13T00:58:39.695Z,85.09
2023-02-13T01:01:07.954Z,85.07
2023-02-13T01:03:36.241Z,85.01
2023-02-13T01:06:05.322Z,84.77
2023-02-13T01:08:42.132Z,84.59
2023-02-13T01:11:10.432Z,84.35
2023-02-13T01:13:38.745Z,84.16
2023-02-13T01:16:07.177Z,83.91
2023-02-13T01:18:35.674Z,83.69
2023-02-13T01:21:09.531Z,83.60
2023-02-13T01:23:38.951Z,83.73
2023-02-13T01:26:11.144Z,83.82
2023-02-13T01:28:39.347Z,83.84
2023-02-13T01:31:07.726Z,83.98
2023-02-13T01:33:36.288Z,84.05
2023-02-13T01:36:09.909Z,84.09
2023-02-13T01:38:40.603Z,84.02
2023-02-13T01:41:13.786Z,84.05
2023-02-13T01:44:02.872Z,84.27
2023-02-13T01:46:34.103Z,84.54
2023-02-13T01:49:16.760Z,85.03
2023-02-13T01:51:51.522Z,85.44
2023-02-13T01:54:31.132Z,85.93
2023-02-13T01:57:24.417Z,86.35
2023-02-13T02:00:14.712Z,86.53
2023-02-13T02:02:55.803Z,86.35
2023-02-13T02:05:34.897Z,85.98
2023-02-13T02:08:06.480Z,85.83
2023-02-13T02:10:38.095Z,85.88
2023-02-13T02:13:16.891Z,86.02
2023-02-13T02:15:46.860Z,85.88
2023-02-13T02:18:20.734Z,85.52
2023-02-13T02:21:15.828Z,85.23
2023-02-13T02:24:47.107Z,84.86
2023-02-13T02:27:48.820Z,84.72
2023-02-13T02:30:46.583Z,84.80
2023-02-13T02:33:25.174Z,84.85
2023-02-13T02:36:14.929Z,84.94
2023-02-13T02:38:52.776Z,85.01
2023-02-13T02:41:47.651Z,85.27
2023-02-13T02:44:25.403Z,85.27
2023-02-13T02:47:29.206Z,85.05
2023-02-13T02:50:25.784Z,84.96
2023-02-13T02:53:18.631Z,84.78
2023-02-13T02:56:25.071Z,84.78
2023-02-13T02:59:23.058Z,84.63
2023-02-13T03:02:13.185Z,84.59
2023-02-13T03:05:04.727Z,84.64
2023-02-13T03:07:39.409Z,84.64
2023-02-13T03:10:32.635Z,84.87
2023-02-13T03:13:21.610Z,85.03
2023-02-13T03:16:16.178Z,84.99
2023-02-13T03:19:08.786Z,84.98
2023-02-13T03:22:24.077Z,85.33
2023-02-13T03:25:38.075Z,85.52
2023-02-13T03:28:38.276Z,85.51
2023-02-13T03:31:31.711Z,85.40
2023-02-13T03:34:07.124Z,85.16
2023-02-13T03:36:59.746Z,84.90
2023-02-13T03:39:53.921Z,84.93
2023-02-13T03:42:44.200Z,84.97
2023-02-13T03:45:37.728Z,85.23
2023-02-13T03:48:30.036Z,85.12
2023-02-13T03:51:00.371Z,85.11
2023-02-13T03:53:32.774Z,85.29
2023-02-13T03:56:21.543Z,85.22
2023-02-13T03:59:12.572Z,85.12
2023-02-13T04:01:44.968Z,85.15
2023-02-13T04:04:25.528Z,85.08
2023-02-13T04:06:56.677Z,84.95
2023-02-13T04:09:29.052Z,84.76
2023-02-13T04:12:26.608Z,84.73
2023-02-13T04:15:04.131Z,84.53
2023-02-13T04:17:41.789Z,84.49
2023-02-13T04:20:10.231Z,84.45
2023-02-13T04:22:47.091Z,84.41
2023-02-13T04:25:19.141Z,84.52
2023-02-13T04:27:47.364Z,84.57
2023-02-13T04:30:15.687Z,84.63
2023-02-13T04:32:43.957Z,84.62
2023-02-13T04:35:14.842Z,84.65
2023-02-13T04:37:43.025Z,84.65
2023-02-13T04:40:11.762Z,84.54
2023-02-13T04:42:39.959Z,84.45
2023-02-13T04:45:08.873Z,84.78
2023-02-13T04:47:37.158Z,85.04
2023-02-13T04:50:05.906Z,85.15
2023-02-13T04:52:34.135Z,85.06
2023-02-13T04:55:02.337Z,84.95
2023-02-13T04:57:30.744Z,85.10
2023-02-13T04:59:58.826Z,85.12
2023-02-13T05:02:27.079Z,85.17
2023-02-13T05:04:55.349Z,85.25
2023-02-13T05:07:23.726Z,85.36
2023-02-13T05:09:51.974Z,85.55
2023-02-13T05:12:20.111Z,85.66
2023-02-13T05:14:48.392Z,85.81
2023-02-13T05:17:16.589Z,85.83
2023-02-13T05:19:53.365Z,85.81
2023-02-13T05:22:40.590Z,85.80
2023-02-13T05:25:08.856Z,85.79
2023-02-13T05:27:36.974Z,85.87
2023-02-13T05:30:06.019Z,85.91
2023-02-13T05:32:34.334Z,85.84
2023-02-13T05:35:04.428Z,85.75
2023-02-13T05:37:33.087Z,85.66
2023-02-13T05:40:01.215Z,85.48
2023-02-13T05:42:29.400Z,85.36
2023-02-13T05:44:57.567Z,85.43
2023-02-13T05:47:25.690Z,85.71
2023-02-13T05:49:54.951Z,85.69
2023-02-13T05:52:23.363Z,85.70
2023-02-13T05:55:00.083Z,85.78
2023-02-13T05:57:28.211Z,85.90
2023-02-13T05:59:56.412Z,86.03
2023-02-13T06:02:24.609Z,86.15
2023-02-13T06:04:53.082Z,86.05
2023-02-13T06:07:21.247Z,85.90
2023-02-13T06:09:49.575Z,85.97
2023-02-13T06:12:17.819Z,85.98
2023-02-13T06:14:46.026Z,85.72
2023-02-13T06:17:14.260Z,85.47
2023-02-13T06:19:42.626Z,85.07
2023-02-13T06:22:10.799Z,84.80
2023-02-13T06:24:38.868Z,84.18
2023-02-13T06:27:07.221Z,83.66
2023-02-13T06:29:35.351Z,83.23
2023-02-13T06:32:03.732Z,82.60
2023-02-13T06:34:31.978Z,82.16
2023-02-13T06:37:00.132Z,82.23
2023-02-13T06:39:28.384Z,82.27
2023-02-13T06:41:56.738Z,82.17
2023-02-13T06:44:25.097Z,81.44
2023-02-13T06:46:53.349Z,80.67
2023-02-13T06:49:21.634Z,80.70
2023-02-13T06:51:50.038Z,80.22
2023-02-13T06:54:18.438Z,79.94
2023-02-13T06:56:46.931Z,80.15
2023-02-13T06:59:15.220Z,79.57
2023-02-13T07:01:43.649Z,79.48
2023-02-13T07:04:11.947Z,79.26
2023-02-13T07:06:52.385Z,78.92
2023-02-13T07:09:24.751Z,78.42
2023-02-13T07:12:04.245Z,77.91
2023-02-13T07:14:32.589Z,76.63
2023-02-13T07:17:00.921Z,76.14
2023-02-13T07:19:29.197Z,75.75
2023-02-13T07:21:57.455Z,75.51
2023-02-13T07:24:26.070Z,74.65
2023-02-13T07:26:54.371Z,74.69
2023-02-13T07:29:22.711Z,73.83
2023-02-13T07:31:51.250Z,72.87
2023-02-13T07:34:19.635Z,73.23
2023-02-13T07:36:47.987Z,72.70
2023-02-13T07:39:16.262Z,72.27
2023-02-13T07:41:44.709Z,71.73
2023-02-13T07:44:13.025Z,71.11
2023-02-13T07:46:41.344Z,69.59
2023-02-13T07:49:09.947Z,67.35
2023-02-13T07:51:38.518Z,66.26
2023-02-13T07:54:07.010Z,67.42
2023-02-13T07:56:36.656Z,65.36
2023-02-13T07:59:12.121Z,64.61
2023-02-13T08:01:40.304Z,64.54
2023-02-13T08:04:08.597Z,63.55
2023-02-13T08:06:40.650Z,64.26
2023-02-13T08:09:38.958Z,62.92
2023-02-13T08:12:16.316Z,61.70
2023-02-13T08:14:46.055Z,58.36
2023-02-13T08:17:39.474Z,59.93
2023-02-13T08:20:08.955Z,60.69
2023-02-13T08:22:38.716Z,59.24
2023-02-13T08:25:16.121Z,58.00
2023-02-13T08:27:45.166Z,57.06
2023-02-13T08:30:18.453Z,56.02
2023-02-13T08:32:54.243Z,55.46
2023-02-13T08:35:34.584Z,54.62
2023-02-13T08:38:05.102Z,53.89
2023-02-13T08:40:35.246Z,53.41
2023-02-13T08:43:06.359Z,52.18
2023-02-13T08:45:37.217Z,51.49
2023-02-13T08:48:05.528Z,51.03
2023-02-13T08:50:36.269Z,49.13
2023-02-13T08:53:17.722Z,48.57
2023-02-13T08:56:25.918Z,48.74
2023-02-13T08:58:55.293Z,48.41
2023-02-13T09:01:24.312Z,47.96
2023-02-13T09:03:52.971Z,47.23
2023-02-13T09:06:22.121Z,46.48
2023-02-13T09:08:50.475Z,46.09
2023-02-13T09:11:20.049Z,45.69
2023-02-13T09:13:48.541Z,44.53
2023-02-13T09:16:17.043Z,43.02
2023-02-13T09:18:58.082Z,43.66
2023-02-13T09:21:26.438Z,43.12
2023-02-13T09:23:55.508Z,42.90
2023-02-13T09:26:24.449Z,42.78
2023-02-13T09:28:53.024Z,41.36
2023-02-13T09:31:21.707Z,40.86
2023-02-13T09:33:50.704Z,41.09
2023-02-13T09:36:22.180Z,40.76
2023-02-13T09:39:05.426Z,40.92
2023-02-13T09:41:51.556Z,42.67
2023-02-13T09:44:43.442Z,42.47
2023-02-13T09:47:32.373Z,40.61
2023-02-13T09:50:17.530Z,41.40
2023-02-13T09:52:48.260Z,41.11
2023-02-13T09:55:39.422Z,41.97
2023-02-13T09:58:23.537Z,42.40
2023-02-13T10:00:57.306Z,41.07
2023-02-13T10:03:42.589Z,42.05
2023-02-13T10:06:32.964Z,42.95
2023-02-13T10:09:17.568Z,43.38
2023-02-13T10:12:20.021Z,42.57
2023-02-13T10:15:06.394Z,41.12
2023-02-13T10:17:41.076Z,41.74
2023-02-13T10:20:25.395Z,41.30
2023-02-13T10:23:03.457Z,41.26
2023-02-13T10:25:50.645Z,41.52
2023-02-13T10:28:48.257Z,41.11
2023-02-13T10:31:22.685Z,41.80
2023-02-13T10:33:53.795Z,41.58
2023-02-13T10:36:34.851Z,41.89
2023-02-13T10:39:06.996Z,41.39
2023-02-13T10:41:54.832Z,40.99
2023-02-13T10:44:54.004Z,41.59
2023-02-13T10:47:32.544Z,41.83
2023-02-13T10:50:20.483Z,41.28
2023-02-13T10:53:07.941Z,41.91
2023-02-13T10:55:57.641Z,41.43
2023-02-13T10:58:32.262Z,41.39
2023-02-13T11:01:20.924Z,41.96
2023-02-13T11:04:11.172Z,42.52
2023-02-13T11:06:51.372Z,42.22
2023-02-13T11:09:20.732Z,42.19
2023-02-13T11:11:50.400Z,42.35
2023-02-13T11:14:22.732Z,42.37
2023-02-13T11:17:12.666Z,42.00
2023-02-13T11:20:03.200Z,41.90
2023-02-13T11:22:43.521Z,41.91
2023-02-13T11:25:21.759Z,42.25
2023-02-13T11:27:59.347Z,42.49
2023-02-13T11:30:32.261Z,42.01
2023-02-13T11:33:04.812Z,42.31
2023-02-13T11:35:34.454Z,40.69
2023-02-13T11:38:24.578Z,40.61
2023-02-13T11:41:15.421Z,40.46
2023-02-13T11:44:00.989Z,40.78
2023-02-13T11:46:49.451Z,41.48
2023-02-13T11:49:22.906Z,42.65
2023-02-13T11:51:57.098Z,43.92
2023-02-13T11:54:43.672Z,44.64
2023-02-13T11:57:21.015Z,44.76
2023-02-13T11:59:57.489Z,44.76
2023-02-13T12:02:54.497Z,45.81
2023-02-13T12:05:26.396Z,46.69
2023-02-13T12:08:09.446Z,47.07
2023-02-13T12:10:38.858Z,47.30
2023-02-13T12:13:30.027Z,47.79
2023-02-13T12:16:11.035Z,47.97
2023-02-13T12:18:52.843Z,47.64
2023-02-13T12:21:37.541Z,47.40
2023-02-13T12:24:27.400Z,47.82
2023-02-13T12:27:17.137Z,48.22
2023-02-13T12:30:03.988Z,48.80
2023-02-13T12:32:38.564Z,49.75
2023-02-13T12:35:45.046Z,50.28
2023-02-13T12:38:51.387Z,50.28
2023-02-13T12:41:24.011Z,50.29
2023-02-13T12:44:07.484Z,50.51
2023-02-13T12:47:06.001Z,49.80
2023-02-13T12:50:10.314Z,49.62
2023-02-13T12:53:03.076Z,49.90
2023-02-13T12:56:10.011Z,50.12
2023-02-13T12:58:56.708Z,50.00
2023-02-13T13:02:11.902Z,50.11
2023-02-13T13:04:53.778Z,50.16
2023-02-13T13:07:50.491Z,50.06
2023-02-13T13:10:51.517Z,50.36
2023-02-13T13:14:16.163Z,50.30
2023-02-13T13:16:55.875Z,49.76
2023-02-13T13:19:31.882Z,49.59
2023-02-13T13:22:19.676Z,49.67
2023-02-13T13:24:47.981Z,49.79
2023-02-13T13:27:25.055Z,50.22
2023-02-13T13:30:01.742Z,50.22
2023-02-13T13:32:32.635Z,49.79
2023-02-13T13:35:02.509Z,50.13
2023-02-13T13:37:46.947Z,49.42
2023-02-13T13:40:54.062Z,49.02
2023-02-13T13:43:45.604Z,47.60
2023-02-13T13:46:26.744Z,46.19
2023-02-13T13:49:10.729Z,46.00
2023-02-13T13:51:39.248Z,45.79
2023-02-13T13:54:09.956Z,45.49
2023-02-13T13:56:53.665Z,45.27
2023-02-13T13:59:34.110Z,45.49
2023-02-13T14:02:17.730Z,45.86
2023-02-13T14:05:25.638Z,45.98
2023-02-13T14:08:01.403Z,46.64
2023-02-13T14:10:29.614Z,46.12
2023-02-13T14:12:58.026Z,45.50
2023-02-13T14:15:51.173Z,45.73
2023-02-13T14:18:24.450Z,45.67
2023-02-13T14:21:01.784Z,44.59
2023-02-13T14:23:38.669Z,45.10
2023-02-13T14:26:13.329Z,45.82
2023-02-13T14:28:47.700Z,45.80
2023-02-13T14:31:30.087Z,45.40
2023-02-13T14:34:09.320Z,45.54
2023-02-13T14:37:00.651Z,45.48
2023-02-13T14:39:31.798Z,45.40
2023-02-13T14:42:04.738Z,45.48
2023-02-13T14:44:36.192Z,45.57
2023-02-13T14:47:14.835Z,44.53
2023-02-13T14:49:44.752Z,44.76
2023-02-13T14:52:22.132Z,45.15
2023-02-13T14:54:54.655Z,45.27
2023-02-13T14:57:25.663Z,45.06
2023-02-13T14:59:59.497Z,45.28
2023-02-13T15:02:36.831Z,45.75
2023-02-13T15:05:24.706Z,46.05
2023-02-13T15:08:03.461Z,46.51
2023-02-13T15:10:52.294Z,47.14
2023-02-13T15:13:26.994Z,47.72
2023-02-13T15:16:02.287Z,48.31
2023-02-13T15:18:36.904Z,48.78
2023-02-13T15:21:05.383Z,49.49
2023-02-13T15:23:34.876Z,50.12
2023-02-13T15:26:06.627Z,50.72
2023-02-13T15:28:36.582Z,51.45
2023-02-13T15:31:19.706Z,52.04
2023-02-13T15:33:50.045Z,52.81
2023-02-13T15:36:21.412Z,53.52
2023-02-13T15:38:49.693Z,54.20
2023-02-13T15:41:30.938Z,54.82
2023-02-13T15:44:00.297Z,55.65
2023-02-13T15:46:34.593Z,56.56
2023-02-13T15:49:15.759Z,57.39
2023-02-13T15:51:46.115Z,58.19
2023-02-13T15:54:30.797Z,58.61
2023-02-13T15:57:07.284Z,59.04
2023-02-13T15:59:38.583Z,58.97
2023-02-13T16:02:15.215Z,60.07
2023-02-13T16:04:44.102Z,61.10
2023-02-13T16:07:14.196Z,61.39
2023-02-13T16:09:42.807Z,62.19
2023-02-13T16:12:16.938Z,62.04
2023-02-13T16:14:51.927Z,62.54
2023-02-13T16:17:33.851Z,63.39
2023-02-13T16:20:06.850Z,63.24
2023-02-13T16:22:39.863Z,64.08
2023-02-13T16:25:18.651Z,64.32
2023-02-13T16:28:11.361Z,65.29
2023-02-13T16:30:42.286Z,66.03
2023-02-13T16:33:16.424Z,67.45
2023-02-13T16:35:45.361Z,67.50
2023-02-13T16:38:28.771Z,67.30
2023-02-13T16:41:22.303Z,67.66
2023-02-13T16:43:55.436Z,67.97
2023-02-13T16:46:39.689Z,67.61
2023-02-13T16:49:10.815Z,67.52
2023-02-13T16:51:41.868Z,67.70
2023-02-13T16:54:19.517Z,68.41
2023-02-13T16:56:55.038Z,68.49
2023-02-13T16:59:32.309Z,68.42
2023-02-13T17:02:10.948Z,68.98
2023-02-13T17:04:39.517Z,69.40
2023-02-13T17:07:18.566Z,69.23
2023-02-13T17:09:56.854Z,68.84
2023-02-13T17:12:26.061Z,69.19
2023-02-13T17:14:56.625Z,69.36
2023-02-13T17:17:28.732Z,69.27
2023-02-13T17:19:57.343Z,69.52
2023-02-13T17:22:33.887Z,69.90
2023-02-13T17:25:05.195Z,69.71
2023-02-13T17:27:33.328Z,69.73
2023-02-13T17:30:01.876Z,69.75
2023-02-13T17:32:30.312Z,70.06
2023-02-13T17:34:58.534Z,69.86
2023-02-13T17:37:28.288Z,69.74
2023-02-13T17:39:56.567Z,70.64
2023-02-13T17:42:30.073Z,70.42
2023-02-13T17:44:59.247Z,70.76
2023-02-13T17:47:27.895Z,70.60
2023-02-13T17:50:08.255Z,71.19
2023-02-13T17:52:39.021Z,71.44
2023-02-13T17:55:28.168Z,71.27
2023-02-13T17:57:58.606Z,70.84
2023-02-13T18:00:30.095Z,70.77
2023-02-13T18:03:00.748Z,71.49
2023-02-13T18:05:29.284Z,71.41
2023-02-13T18:07:57.608Z,71.55
2023-02-13T18:10:27.943Z,71.67
2023-02-13T18:12:58.339Z,72.16
2023-02-13T18:15:26.535Z,72.38
2023-02-13T18:17:54.839Z,72.70
2023-02-13T18:20:23.152Z,72.73
2023-02-13T18:22:51.585Z,73.22
2023-02-13T18:25:21.148Z,73.27
2023-02-13T18:27:49.834Z,73.05
2023-02-13T18:30:20.437Z,73.16
2023-02-13T18:32:53.498Z,73.52
2023-02-13T18:35:23.220Z,74.17
2023-02-13T18:37:51.914Z,74.77
2023-02-13T18:40:20.979Z,74.82
2023-02-13T18:42:51.114Z,75.02
2023-02-13T18:45:19.698Z,75.37
2023-02-13T18:47:47.871Z,75.45
2023-02-13T18:50:16.187Z,75.17
2023-02-13T18:52:44.380Z,75.49
2023-02-13T18:55:12.754Z,75.78
2023-02-13T18:57:43.663Z,75.78
2023-02-13T19:00:14.316Z,75.88
2023-02-13T19:02:42.621Z,75.69
2023-02-13T19:05:10.973Z,75.68
2023-02-13T19:07:39.210Z,75.86
2023-02-13T19:10:07.800Z,76.09
2023-02-13T19:12:36.166Z,76.22
2023-02-13T19:15:05.141Z,76.02
2023-02-13T19:17:34.815Z,76.15
2023-02-13T19:20:06.605Z,76.24
2023-02-13T19:22:35.319Z,76.26
2023-02-13T19:25:03.550Z,76.22
2023-02-13T19:27:31.911Z,76.07
2023-02-13T19:30:00.227Z,76.25
2023-02-13T19:32:28.786Z,76.16
2023-02-13T19:34:57.184Z,76.17
2023-02-13T19:37:28.287Z,76.38
2023-02-13T19:39:56.829Z,76.71
2023-02-13T19:42:25.242Z,77.24
2023-02-13T19:44:53.408Z,77.21
2023-02-13T19:47:21.762Z,77.37
2023-02-13T19:49:51.837Z,77.70
2023-02-13T19:52:20.903Z,77.70
2023-02-13T19:54:49.123Z,77.92
2023-02-13T19:57:18.490Z,78.38
2023-02-13T19:59:47.457Z,78.04
2023-02-13T20:02:17.282Z,78.03
2023-02-13T20:04:45.520Z,77.93
2023-02-13T20:07:14.629Z,78.03
2023-02-13T20:09:43.493Z,78.09
2023-02-13T20:12:11.726Z,78.38
2023-02-13T20:14:40.185Z,79.04
2023-02-13T20:17:08.531Z,78.91
2023-02-13T20:19:36.834Z,78.92
2023-02-13T20:22:05.026Z,79.41
2023-02-13T20:24:33.235Z,80.21
2023-02-13T20:27:01.522Z,80.49
2023-02-13T20:29:29.578Z,80.99
2023-02-13T20:31:57.809Z,80.99
2023-02-13T20:34:27.914Z,80.86
2023-02-13T20:36:57.842Z,80.90
2023-02-13T20:39:26.161Z,80.86
2023-02-13T20:41:54.235Z,80.54
2023-02-13T20:44:23.064Z,80.29
2023-02-13T20:46:51.534Z,80.15
2023-02-13T20:49:22.054Z,80.51
2023-02-13T20:51:50.515Z,80.35
2023-02-13T20:54:20.018Z,81.04
2023-02-13T20:56:48.430Z,80.98
2023-02-13T20:59:16.624Z,81.31
2023-02-13T21:01:45.785Z,81.33
2023-02-13T21:04:19.210Z,81.00
2023-02-13T21:06:48.180Z,80.68
2023-02-13T21:09:16.732Z,80.44
2023-02-13T21:11:45.310Z,80.53
2023-02-13T21:14:14.268Z,80.63
2023-02-13T21:16:43.881Z,80.69
2023-02-13T21:19:17.329Z,80.54
2023-02-13T21:21:46.769Z,80.65
2023-02-13T21:24:21.641Z,80.67
2023-02-13T21:26:52.604Z,80.86
2023-02-13T21:29:21.150Z,80.98
2023-02-13T21:31:49.472Z,80.98
2023-02-13T21:34:18.293Z,81.31
2023-02-13T21:36:47.316Z,81.19
2023-02-13T21:39:16.306Z,81.46
2023-02-13T21:41:45.690Z,81.41
2023-02-13T21:44:15.723Z,81.62
2023-02-13T21:46:45.531Z,81.60
2023-02-13T21:49:17.169Z,81.60
2023-02-13T21:51:45.545Z,81.44
2023-02-13T21:54:14.021Z,81.36
2023-02-13T21:56:43.390Z,81.12
2023-02-13T21:59:16.349Z,81.23
2023-02-13T22:01:50.419Z,81.46
2023-02-13T22:04:19.171Z,81.31
2023-02-13T22:06:49.877Z,81.28
2023-02-13T22:09:20.334Z,81.05
2023-02-13T22:11:50.988Z,80.98
2023-02-13T22:14:20.275Z,80.93
2023-02-13T22:16:50.879Z,80.72
2023-02-13T22:19:20.364Z,80.66
2023-02-13T22:21:48.670Z,80.52
2023-02-13T22:24:16.961Z,80.39
2023-02-13T22:26:48.003Z,80.49
2023-02-13T22:29:18.554Z,80.42
2023-02-13T22:31:47.068Z,80.37
2023-02-13T22:34:15.933Z,80.34
2023-02-13T22:36:44.182Z,80.54
2023-02-13T22:39:14.948Z,80.51
2023-02-13T22:41:45.740Z,80.38
2023-02-13T22:44:14.439Z,80.25
2023-02-13T22:46:42.789Z,80.27
2023-02-13T22:49:11.048Z,80.13
2023-02-13T22:51:39.218Z,79.90
2023-02-13T22:54:07.551Z,79.81
2023-02-13T22:56:35.726Z,79.79
2023-02-13T22:59:04.015Z,79.64
2023-02-13T23:01:32.134Z,79.44
2023-02-13T23:04:00.392Z,79.45
2023-02-13T23:06:29.064Z,79.38
2023-02-13T23:08:57.353Z,79.26
2023-02-13T23:11:46.711Z,79.27
2023-02-13T23:14:16.355Z,79.27
2023-02-13T23:17:03.175Z,79.34
2023-02-13T23:19:31.834Z,79.27
2023-02-13T23:22:00.776Z,79.01
2023-02-13T23:24:30.189Z,78.81
2023-02-13T23:27:00.141Z,78.63
2023-02-13T23:29:28.307Z,78.54
2023-02-13T23:31:56.867Z,78.52
2023-02-13T23:34:25.283Z,78.58
2023-02-13T23:36:53.495Z,78.48
2023-02-13T23:39:21.845Z,78.55
2023-02-13T23:41:50.015Z,78.60
2023-02-13T23:44:18.504Z,78.48
2023-02-13T23:46:46.682Z,78.41
2023-02-13T23:49:15.044Z,78.35
2023-02-13T23:51:43.124Z,78.35
2023-02-13T23:54:15.704Z,78.36
2023-02-13T23:56:44.917Z,78.49
2023-02-13T23:59:13.404Z,78.58
